Time;durP1;ratioP1;P1;durP2;ratioP2;P2;SDS_P1;SDS_P2;PMS_P1;PMS_P2;Temp;Humidity;BMP_temperature;BMP_pressure;BME280_temperature;BME280_humidity;BME280_pressure;Samples;Min_cycle;Max_cycle;Signal;HPM_P1;HPM_P2
2022/11/07 00:00:34;;;;;;;;;;;;;;;18.37;66.80;100456.30;2379809;73;50743;-77
2022/11/07 00:03:36;;;;;;;;;;;;;;;18.38;66.71;100446.41;2347110;74;50990;-76
2022/11/07 00:06:37;;;;;;;;;;;;;;;18.37;66.69;100454.95;2381846;74;51603;-78
2022/11/07 00:09:39;;;;;;;;;;;;;;;18.36;66.67;100446.58;2381694;74;50635;-78
2022/11/07 00:12:41;;;;;;;;;;;;;;;18.36;66.66;100448.43;2381781;74;51545;-77
2022/11/07 00:15:42;;;;;;;;;;;;;;;18.35;66.66;100446.78;2373378;73;52646;-75
2022/11/07 00:18:44;;;;;;;;;;;;;;;18.34;66.68;100449.98;2381582;74;50468;-76
2022/11/07 00:21:46;;;;;;;;;;;;;;;18.35;66.66;100445.44;2381460;74;50343;-77
2022/11/07 00:24:47;;;;;;;;;;;;;;;18.33;66.71;100446.13;2381015;74;50271;-78
2022/11/07 00:27:49;;;;;;;;;;;;;;;18.31;66.73;100443.63;2350705;72;52234;-76
2022/11/07 00:30:50;;;;;;;;;;;;;;;18.31;66.71;100436.93;2325044;74;50302;-77
2022/11/07 00:33:52;;;;;;;;;;;;;;;18.29;66.76;100438.98;2333481;75;50426;-77
2022/11/07 00:36:54;;;;;;;;;;;;;;;18.32;66.67;100437.27;2354039;75;50789;-77
2022/11/07 00:39:55;;;;;;;;;;;;;;;18.30;66.71;100425.91;2355864;75;50973;-77
2022/11/07 00:42:57;;;;;;;;;;;;;;;18.30;66.70;100431.27;2334107;75;51511;-76
2022/11/07 00:46:00;;;;;;;;;;;;;;;18.31;66.56;100431.57;2333866;75;50660;-77
2022/11/07 00:49:01;;;;;;;;;;;;;;;18.28;66.80;100431.95;2353625;75;50811;-77
2022/11/07 00:52:03;;;;;;;;;;;;;;;18.29;66.73;100430.95;2303134;75;52617;-76
2022/11/07 00:55:04;;;;;;;;;;;;;;;18.27;66.76;100426.28;2353712;75;50728;-76
2022/11/07 00:58:06;;;;;;;;;;;;;;;18.27;66.71;100419.08;2358681;75;50337;-77
2022/11/07 01:01:12;;;;;;;;;;;;;;;18.26;66.74;100421.44;2368754;75;50419;-77
2022/11/07 01:07:33;;;;;;;;;;;;;;;18.26;66.72;100409.87;2348887;75;21752;-76
2022/11/07 01:10:36;;;;;;;;;;;;;;;18.25;66.67;100417.08;2369308;75;50334;-76
2022/11/07 01:13:37;;;;;;;;;;;;;;;18.25;66.69;100407.71;2368022;75;50421;-77
2022/11/07 01:16:40;;;;;;;;;;;;;;;18.24;66.73;100413.27;2318105;75;50025;-76
2022/11/07 01:19:42;;;;;;;;;;;;;;;18.20;66.85;100418.66;2345361;75;51502;-77
2022/11/07 01:22:43;;;;;;;;;;;;;;;18.21;66.86;100427.86;2344966;75;50426;-77
2022/11/07 01:25:45;;;;;;;;;;;;;;;18.20;66.91;100414.13;2369364;75;50424;-76
2022/11/07 01:28:47;;;;;;;;;;;;;;;18.18;66.91;100423.37;2371109;74;49796;-76
2022/11/07 01:31:48;;;;;;;;;;;;;;;18.18;66.96;100419.35;2410775;73;50730;-77
2022/11/07 01:34:50;;;;;;;;;;;;;;;18.17;66.90;100417.70;2412199;73;51575;-76
2022/11/07 01:37:51;;;;;;;;;;;;;;;18.16;66.81;100403.48;2412542;73;51581;-77
2022/11/07 01:44:14;;;;;;;;;;;;;;;18.17;66.72;100404.31;2385224;73;21741;-76
2022/11/07 01:47:15;;;;;;;;;;;;;;;18.17;66.70;100405.66;2411414;73;50429;-76
2022/11/07 01:50:17;;;;;;;;;;;;;;;18.16;66.72;100412.01;2411185;73;50725;-76
2022/11/07 01:53:19;;;;;;;;;;;;;;;18.18;66.64;100404.62;2382623;73;51827;-76
2022/11/07 01:56:21;;;;;;;;;;;;;;;18.16;66.65;100409.33;2410857;73;51491;-76
2022/11/07 01:59:23;;;;;;;;;;;;;;;18.15;66.64;100415.71;2410882;73;50433;-76
2022/11/07 02:02:25;;;;;;;;;;;;;;;18.15;66.64;100417.88;2411099;73;51386;-76
2022/11/07 02:05:28;;;;;;;;;;;;;;;18.15;66.57;100417.05;2382231;74;50187;-76
2022/11/07 02:08:30;;;;;;;;;;;;;;;18.14;66.60;100417.56;2410826;73;50774;-78
2022/11/07 02:11:31;;;;;;;;;;;;;;;18.15;66.57;100413.03;2411901;73;51613;-76
2022/11/07 02:14:33;;;;;;;;;;;;;;;18.14;66.52;100411.39;2382617;73;50156;-77
2022/11/07 02:17:34;;;;;;;;;;;;;;;18.13;66.57;100413.20;2411005;74;50639;-76
2022/11/07 02:20:36;;;;;;;;;;;;;;;18.14;66.52;100415.41;2383084;74;50160;-76
2022/11/07 02:23:42;;;;;;;;;;;;;;;18.14;66.51;100407.38;2382662;74;50650;-75
2022/11/07 02:26:44;;;;;;;;;;;;;;;18.12;66.57;100410.22;2393534;73;51793;-75
2022/11/07 02:29:46;;;;;;;;;;;;;;;18.12;66.58;100406.72;2410314;73;50964;-76
2022/11/07 02:32:48;;;;;;;;;;;;;;;18.12;66.61;100402.70;2410281;74;51647;-76
2022/11/07 02:35:50;;;;;;;;;;;;;;;18.10;66.63;100404.22;2410196;74;51490;-76
2022/11/07 02:38:56;;;;;;;;;;;;;;;18.10;66.65;100399.37;2410401;74;51520;-76
2022/11/07 02:41:56;;;;;;;;;;;;;;;18.10;66.61;100394.84;2410694;74;22239;-76
2022/11/07 02:44:58;;;;;;;;;;;;;;;18.11;66.55;100402.36;2381775;74;51455;-76
2022/11/07 02:47:59;;;;;;;;;;;;;;;18.10;66.53;100402.87;2410424;74;51487;-75
2022/11/07 02:51:01;;;;;;;;;;;;;;;18.08;66.51;100402.22;2410282;74;51504;-76
2022/11/07 02:54:02;;;;;;;;;;;;;;;18.11;66.48;100403.70;2409784;74;50983;-76
2022/11/07 02:57:04;;;;;;;;;;;;;;;18.08;66.53;100410.77;2381924;73;51432;-76
2022/11/07 03:00:06;;;;;;;;;;;;;;;18.09;66.51;100399.06;2383456;73;51570;-76
2022/11/07 03:03:08;;;;;;;;;;;;;;;18.09;66.49;100397.73;2388027;73;50347;-77
2022/11/07 03:06:10;;;;;;;;;;;;;;;18.08;66.51;100402.73;2416246;73;50042;-76
2022/11/07 03:09:12;;;;;;;;;;;;;;;18.07;66.54;100408.61;2388289;73;50656;-76
2022/11/07 03:12:13;;;;;;;;;;;;;;;18.06;66.54;100410.46;2388254;73;51560;-76
2022/11/07 03:15:15;;;;;;;;;;;;;;;18.05;66.60;100406.10;2414072;73;51492;-77
2022/11/07 03:18:16;;;;;;;;;;;;;;;18.06;66.57;100413.66;2416532;73;51213;-77
2022/11/07 03:21:18;;;;;;;;;;;;;;;18.05;66.56;100414.14;2387967;73;51545;-77
2022/11/07 03:24:19;;;;;;;;;;;;;;;18.05;66.55;100412.80;2414356;73;50337;-76
2022/11/07 03:27:21;;;;;;;;;;;;;;;18.05;66.54;100418.66;2381067;73;50190;-77
2022/11/07 03:30:23;;;;;;;;;;;;;;;18.05;66.55;100420.00;2367388;74;49335;-77
2022/11/07 03:33:24;;;;;;;;;;;;;;;18.05;66.56;100432.05;2369450;75;50772;-77
2022/11/07 03:36:26;;;;;;;;;;;;;;;18.04;66.53;100431.74;2340686;75;50721;-77
2022/11/07 03:39:27;;;;;;;;;;;;;;;18.04;66.50;100430.41;2369627;75;50782;-77
2022/11/07 03:42:29;;;;;;;;;;;;;;;18.04;66.52;100439.77;2341958;75;50953;-76
2022/11/07 03:45:30;;;;;;;;;;;;;;;18.04;66.45;100441.94;2340459;75;51562;-77
2022/11/07 03:48:32;;;;;;;;;;;;;;;18.02;66.53;100441.80;2340690;74;50031;-77
2022/11/07 03:51:34;;;;;;;;;;;;;;;18.03;66.49;100455.50;2314379;75;51566;-77
2022/11/07 03:54:35;;;;;;;;;;;;;;;18.02;66.50;100454.67;2341995;75;50104;-77
2022/11/07 03:57:37;;;;;;;;;;;;;;;18.01;66.49;100457.03;2380680;72;50672;-77
2022/11/07 04:00:38;;;;;;;;;;;;;;;18.02;66.49;100457.34;2379522;73;51518;-76
2022/11/07 04:03:40;;;;;;;;;;;;;;;18.02;66.45;100468.06;2346432;74;51504;-77
2022/11/07 04:06:41;;;;;;;;;;;;;;;18.00;66.46;100454.02;2341265;75;51046;-77
2022/11/07 04:09:43;;;;;;;;;;;;;;;18.00;66.40;100458.03;2341941;74;50378;-77
2022/11/07 04:19:25;;;;;;;;;;;;;;;18.00;66.22;100462.56;2369731;75;22522;-76
2022/11/07 04:22:27;;;;;;;;;;;;;;;18.02;66.14;100458.69;2341982;75;51679;-78
2022/11/07 04:28:47;;;;;;;;;;;;;;;18.17;65.75;100451.17;2360982;73;22395;-78
2022/11/07 04:31:49;;;;;;;;;;;;;;;18.18;66.04;100455.50;2380844;73;51473;-78
2022/11/07 04:34:51;;;;;;;;;;;;;;;18.25;66.01;100453.23;2369284;73;50368;-77
2022/11/07 04:37:53;;;;;;;;;;;;;;;18.33;65.86;100466.22;2412003;73;51558;-76
2022/11/07 04:40:55;;;;;;;;;;;;;;;18.40;65.70;100467.97;2412149;73;50294;-77
2022/11/07 04:43:56;;;;;;;;;;;;;;;18.50;65.48;100470.37;2382997;73;50996;-77
2022/11/07 04:46:58;;;;;;;;;;;;;;;18.57;65.28;100469.92;2412032;73;51486;-77
2022/11/07 04:50:00;;;;;;;;;;;;;;;18.66;65.04;100469.32;2412191;73;50209;-76
2022/11/07 04:53:01;;;;;;;;;;;;;;;18.74;64.77;100469.20;2386009;73;50086;-77
2022/11/07 04:56:03;;;;;;;;;;;;;;;18.81;64.58;100472.01;2383641;73;49492;-77
2022/11/07 04:59:04;;;;;;;;;;;;;;;18.87;64.45;100473.41;2389244;73;50723;-77
2022/11/07 05:02:06;;;;;;;;;;;;;;;18.92;64.27;100477.69;2388767;73;52251;-77
2022/11/07 05:05:08;;;;;;;;;;;;;;;18.95;64.26;100483.70;2390937;73;50724;-75
2022/11/07 05:08:09;;;;;;;;;;;;;;;18.93;64.24;100479.86;2389820;73;50172;-77
2022/11/07 05:11:11;;;;;;;;;;;;;;;18.91;64.29;100489.96;2388524;73;50646;-76
2022/11/07 05:14:12;;;;;;;;;;;;;;;18.88;64.41;100493.85;2400032;72;51422;-77
2022/11/07 05:17:14;;;;;;;;;;;;;;;18.84;64.49;100491.22;2386236;73;50717;-75
2022/11/07 05:20:27;;;;;;;;;;;;;;;18.82;64.57;100501.28;2391782;73;51041;-76
2022/11/07 05:23:28;;;;;;;;;;;;;;;18.78;64.72;100496.48;2387992;73;51506;-76
2022/11/07 05:26:30;;;;;;;;;;;;;;;18.77;64.83;100498.34;2413938;73;51519;-75
2022/11/07 05:29:32;;;;;;;;;;;;;;;18.80;64.80;100500.64;2386865;73;50852;-75
2022/11/07 05:32:36;;;;;;;;;;;;;;;18.85;64.72;100495.55;2416095;73;52540;-78
2022/11/07 05:35:37;;;;;;;;;;;;;;;18.92;64.54;100501.00;2414060;73;23492;-78
2022/11/07 05:38:40;;;;;;;;;;;;;;;18.93;64.48;100495.45;2414251;73;52396;-78
2022/11/07 05:41:42;;;;;;;;;;;;;;;18.91;64.49;100504.19;2412753;73;51493;-78
2022/11/07 05:44:43;;;;;;;;;;;;;;;18.89;64.54;100504.88;2384128;73;50089;-79
2022/11/07 05:47:45;;;;;;;;;;;;;;;18.85;64.61;100512.97;2381401;74;50228;-79
2022/11/07 05:50:46;;;;;;;;;;;;;;;18.83;64.67;100516.86;2410170;74;50745;-79
2022/11/07 05:53:48;;;;;;;;;;;;;;;18.79;64.74;100519.09;2381962;74;50647;-79
2022/11/07 05:56:49;;;;;;;;;;;;;;;18.75;64.83;100516.94;2381990;74;50936;-80
2022/11/07 05:59:51;;;;;;;;;;;;;;;18.71;65.04;100528.55;2410471;73;51409;-80
2022/11/07 06:02:53;;;;;;;;;;;;;;;18.72;65.11;100536.39;2410458;73;50737;-79
2022/11/07 06:05:55;;;;;;;;;;;;;;;18.78;65.02;100524.63;2410183;74;51857;-79
2022/11/07 06:08:56;;;;;;;;;;;;;;;18.85;64.86;100523.69;2409957;74;50065;-78
2022/11/07 06:11:58;;;;;;;;;;;;;;;18.93;64.68;100528.97;2380716;74;50662;-79
2022/11/07 06:15:00;;;;;;;;;;;;;;;18.97;64.53;100537.97;2411176;73;51441;-77
2022/11/07 06:18:02;;;;;;;;;;;;;;;18.96;64.48;100532.27;2408632;73;51564;-79
2022/11/07 06:21:03;;;;;;;;;;;;;;;18.95;64.50;100542.69;2387881;73;50102;-79
2022/11/07 06:24:05;;;;;;;;;;;;;;;18.92;64.55;100547.40;2414380;73;50414;-78
2022/11/07 06:27:06;;;;;;;;;;;;;;;18.90;64.58;100558.81;2414022;73;50252;-79
2022/11/07 06:30:08;;;;;;;;;;;;;;;18.85;64.64;100550.50;2414232;73;49823;-77
2022/11/07 06:33:11;;;;;;;;;;;;;;;18.83;64.69;100546.34;2361091;73;49926;-77
2022/11/07 06:36:12;;;;;;;;;;;;;;;18.78;64.86;100553.63;2414173;73;52459;-78
2022/11/07 06:39:14;;;;;;;;;;;;;;;18.75;65.01;100556.66;2395117;73;51442;-80
2022/11/07 06:42:15;;;;;;;;;;;;;;;18.78;65.08;100552.77;2393422;73;50421;-80
2022/11/07 06:45:17;;;;;;;;;;;;;;;18.86;64.91;100560.73;2363382;75;51951;-76
2022/11/07 06:48:19;;;;;;;;;;;;;;;18.91;64.62;100558.33;2374005;73;50397;-76
2022/11/07 06:51:20;;;;;;;;;;;;;;;18.93;64.50;100559.80;2411853;73;50763;-75
2022/11/07 06:54:22;;;;;;;;;;;;;;;18.92;64.42;100571.53;2412217;73;50745;-76
2022/11/07 06:57:23;;;;;;;;;;;;;;;18.88;64.44;100568.92;2403585;73;50978;-76
2022/11/07 07:00:25;;;;;;;;;;;;;;;18.88;64.45;100566.72;2390727;73;51507;-76
2022/11/07 07:03:26;;;;;;;;;;;;;;;18.89;64.35;100569.23;2411449;73;50726;-76
2022/11/07 07:06:28;;;;;;;;;;;;;;;18.90;64.43;100557.98;2411599;73;50447;-76
2022/11/07 07:09:30;;;;;;;;;;;;;;;18.84;64.48;100570.81;2383479;73;49697;-77
2022/11/07 07:12:31;;;;;;;;;;;;;;;18.79;64.63;100580.75;2411639;73;50624;-78
2022/11/07 07:15:33;;;;;;;;;;;;;;;18.78;64.68;100577.75;2396774;73;51511;-76
2022/11/07 07:18:34;;;;;;;;;;;;;;;18.82;64.60;100585.73;2410531;73;50388;-77
2022/11/07 07:21:36;;;;;;;;;;;;;;;18.88;64.53;100586.83;2410152;73;50718;-77
2022/11/07 07:24:38;;;;;;;;;;;;;;;18.95;64.27;100587.75;2381674;74;51592;-76
2022/11/07 07:27:39;;;;;;;;;;;;;;;18.93;64.30;100590.64;2381433;74;51505;-77
2022/11/07 07:30:41;;;;;;;;;;;;;;;18.95;64.29;100590.95;2410446;74;50705;-76
2022/11/07 07:33:43;;;;;;;;;;;;;;;18.95;64.22;100597.14;2353907;74;51470;-76
2022/11/07 07:36:44;;;;;;;;;;;;;;;18.91;64.28;100591.33;2410361;74;50449;-76
2022/11/07 07:39:46;;;;;;;;;;;;;;;18.88;64.36;100594.39;2410253;73;50753;-77
2022/11/07 07:42:48;;;;;;;;;;;;;;;18.84;64.35;100587.72;2410357;73;50651;-77
2022/11/07 07:45:49;;;;;;;;;;;;;;;18.82;64.42;100591.61;2353968;73;52808;-76
2022/11/07 07:48:51;;;;;;;;;;;;;;;18.81;64.45;100581.91;2381061;73;51398;-77
2022/11/07 07:51:52;;;;;;;;;;;;;;;18.82;64.41;100580.88;2411515;73;51611;-77
2022/11/07 07:54:54;;;;;;;;;;;;;;;18.87;64.39;100594.56;2411749;73;50108;-77
2022/11/07 07:57:56;;;;;;;;;;;;;;;18.90;64.25;100588.30;2383247;73;51093;-77
2022/11/07 08:00:57;;;;;;;;;;;;;;;18.93;64.21;100587.95;2411595;73;51531;-78
2022/11/07 08:03:59;;;;;;;;;;;;;;;18.91;64.16;100591.33;2412091;73;50344;-77
2022/11/07 08:07:01;;;;;;;;;;;;;;;18.94;64.10;100588.78;2405325;73;51122;-78
2022/11/07 08:10:02;;;;;;;;;;;;;;;18.91;64.17;100589.98;2393415;73;51335;-78
2022/11/07 08:13:04;;;;;;;;;;;;;;;18.88;64.03;100591.70;2347712;73;51422;-77
2022/11/07 08:16:08;;;;;;;;;;;;;;;18.86;63.98;100595.08;2369817;73;51447;-78
2022/11/07 08:19:10;;;;;;;;;;;;;;;18.88;63.81;100590.37;2312810;73;49584;-78
2022/11/07 08:22:11;;;;;;;;;;;;;;;18.88;63.89;100606.94;2314077;75;52299;-77
2022/11/07 08:25:13;;;;;;;;;;;;;;;18.91;63.77;100607.41;2347155;73;50671;-76
2022/11/07 08:28:14;;;;;;;;;;;;;;;18.90;63.91;100600.37;2411818;73;51455;-77
2022/11/07 08:31:16;;;;;;;;;;;;;;;18.98;63.73;100602.12;2412222;73;51591;-77
2022/11/07 08:34:17;;;;;;;;;;;;;;;19.01;63.61;100598.23;2411675;73;50922;-76
2022/11/07 08:37:19;;;;;;;;;;;;;;;19.04;63.43;100593.86;2412317;73;51553;-78
2022/11/07 08:40:21;;;;;;;;;;;;;;;19.03;63.48;100596.20;2412422;73;51505;-77
2022/11/07 08:43:22;;;;;;;;;;;;;;;19.01;63.46;100603.59;2409264;73;51482;-77
2022/11/07 08:46:24;;;;;;;;;;;;;;;18.98;63.48;100600.78;2384881;73;49575;-76
2022/11/07 08:49:25;;;;;;;;;;;;;;;18.96;63.55;100608.69;2382044;74;50327;-77
2022/11/07 08:52:27;;;;;;;;;;;;;;;18.91;63.63;100595.87;2411102;74;50371;-77
2022/11/07 08:55:28;;;;;;;;;;;;;;;18.87;63.66;100598.06;2410763;74;50731;-76
2022/11/07 08:58:30;;;;;;;;;;;;;;;18.84;63.74;100601.12;2410626;74;50082;-78
2022/11/07 09:01:32;;;;;;;;;;;;;;;18.88;63.68;100615.84;2411218;74;50655;-77
2022/11/07 09:04:33;;;;;;;;;;;;;;;18.96;63.46;100606.86;2411122;74;51547;-78
2022/11/07 09:07:37;;;;;;;;;;;;;;;18.99;63.38;100611.84;2411328;74;51488;-77
2022/11/07 09:10:38;;;;;;;;;;;;;;;18.99;63.35;100619.06;2382065;74;50112;-77
2022/11/07 09:13:40;;;;;;;;;;;;;;;18.99;63.29;100621.75;2371598;73;51543;-78
2022/11/07 09:16:41;;;;;;;;;;;;;;;18.97;63.29;100611.19;2385469;73;51482;-77
2022/11/07 09:19:43;;;;;;;;;;;;;;;18.96;63.34;100612.71;2414470;73;50562;-78
2022/11/07 09:22:44;;;;;;;;;;;;;;;18.92;63.37;100614.94;2388759;73;50059;-77
2022/11/07 09:25:46;;;;;;;;;;;;;;;18.95;63.31;100611.88;2387448;73;50132;-79
2022/11/07 09:28:48;;;;;;;;;;;;;;;18.91;63.32;100620.82;2416903;73;49597;-78
2022/11/07 09:31:49;;;;;;;;;;;;;;;18.87;63.46;100619.52;2414285;73;50395;-77
2022/11/07 09:34:51;;;;;;;;;;;;;;;18.90;63.48;100625.02;2360917;73;51784;-78
2022/11/07 09:37:52;;;;;;;;;;;;;;;18.95;63.36;100621.78;2388377;73;51571;-78
2022/11/07 09:41:02;;;;;;;;;;;;;;;19.00;63.18;100630.10;2388491;73;51930;-77
2022/11/07 09:44:05;;;;;;;;;;;;;;;19.00;63.17;100623.40;2392425;73;51555;-77
2022/11/07 09:47:07;;;;;;;;;;;;;;;19.02;63.10;100624.05;2369851;75;51512;-77
2022/11/07 09:50:13;;;;;;;;;;;;;;;19.02;63.05;100630.75;2342549;75;50137;-78
2022/11/07 09:53:27;;;;;;;;;;;;;;;18.97;63.15;100634.50;2370115;74;52440;-79
2022/11/07 09:56:29;;;;;;;;;;;;;;;18.93;63.25;100633.54;2370370;74;52925;-78
2022/11/07 09:59:35;;;;;;;;;;;;;;;18.91;63.23;100630.72;2370242;75;50450;-77
2022/11/07 10:02:38;;;;;;;;;;;;;;;18.90;63.27;100628.52;2364615;75;51100;-77
2022/11/07 10:05:47;;;;;;;;;;;;;;;18.83;63.45;100628.97;2342011;75;50944;-78
2022/11/07 10:08:50;;;;;;;;;;;;;;;18.91;63.29;100621.34;2369773;75;51538;-77
2022/11/07 10:12:05;;;;;;;;;;;;;;;18.93;63.18;100628.17;2369348;75;50837;-77
2022/11/07 10:15:17;;;;;;;;;;;;;;;18.95;63.11;100621.27;2372067;74;52828;-77
2022/11/07 10:18:20;;;;;;;;;;;;;;;18.96;63.09;100621.61;2374770;74;51491;-76
2022/11/07 10:21:23;;;;;;;;;;;;;;;18.98;63.00;100623.57;2368974;75;50398;-77
2022/11/07 10:24:29;;;;;;;;;;;;;;;18.95;63.06;100627.14;2368672;75;50454;-77
2022/11/07 10:27:31;;;;;;;;;;;;;;;18.90;63.10;100629.86;2342076;75;52724;-77
2022/11/07 10:30:32;;;;;;;;;;;;;;;18.87;63.20;100627.56;2368903;74;51894;-78
2022/11/07 10:33:50;;;;;;;;;;;;;;;18.87;63.15;100629.41;2368725;74;50729;-77
2022/11/07 10:36:52;;;;;;;;;;;;;;;18.80;63.34;100627.97;2368987;74;50414;-77
2022/11/07 10:39:53;;;;;;;;;;;;;;;18.83;63.35;100629.45;2379609;74;50396;-77
2022/11/07 10:42:55;;;;;;;;;;;;;;;18.88;63.23;100630.58;2379458;74;50745;-77
2022/11/07 10:45:56;;;;;;;;;;;;;;;18.93;63.11;100627.32;2368664;75;50674;-77
2022/11/07 10:48:59;;;;;;;;;;;;;;;18.97;62.96;100630.48;2362931;74;50703;-76
2022/11/07 10:52:08;;;;;;;;;;;;;;;19.01;62.85;100623.70;2320880;75;51058;-77
2022/11/07 10:55:16;;;;;;;;;;;;;;;19.00;62.80;100624.22;2339953;74;50288;-77
2022/11/07 10:58:21;;;;;;;;;;;;;;;18.98;62.85;100626.77;2340268;74;50419;-77
2022/11/07 11:01:24;;;;;;;;;;;;;;;18.95;62.90;100624.47;2368892;75;51500;-77
2022/11/07 11:04:27;;;;;;;;;;;;;;;18.91;62.98;100615.45;2340075;75;49587;-77
2022/11/07 11:07:35;;;;;;;;;;;;;;;18.87;63.07;100622.71;2368031;74;50534;-78
2022/11/07 11:10:38;;;;;;;;;;;;;;;18.84;63.15;100615.88;2368914;75;51620;-77
2022/11/07 11:13:39;;;;;;;;;;;;;;;18.85;63.14;100625.56;2372779;72;50457;-77
2022/11/07 11:16:41;;;;;;;;;;;;;;;18.91;63.06;100620.82;2369273;73;49608;-77
2022/11/07 11:19:44;;;;;;;;;;;;;;;18.97;62.87;100619.23;2411872;73;50100;-77
2022/11/07 11:22:46;;;;;;;;;;;;;;;19.00;62.79;100612.67;2410062;73;50486;-78
2022/11/07 11:25:48;;;;;;;;;;;;;;;19.01;62.72;100617.00;2412648;73;50403;-77
2022/11/07 11:28:51;;;;;;;;;;;;;;;18.97;62.81;100617.07;2412456;73;50957;-78
2022/11/07 11:31:53;;;;;;;;;;;;;;;18.93;62.89;100609.41;2412898;73;51537;-78
2022/11/07 11:34:56;;;;;;;;;;;;;;;18.91;62.95;100606.08;2412404;73;50438;-77
2022/11/07 11:38:00;;;;;;;;;;;;;;;18.88;62.98;100609.13;2434268;72;50440;-79
2022/11/07 11:41:03;;;;;;;;;;;;;;;18.83;63.19;100614.70;2429078;72;50966;-79
2022/11/07 11:44:06;;;;;;;;;;;;;;;18.75;63.38;100608.92;2439724;72;51558;-78
2022/11/07 11:47:16;;;;;;;;;;;;;;;18.78;63.48;100605.91;2395735;73;51576;-79
2022/11/07 11:50:19;;;;;;;;;;;;;;;18.85;63.41;100601.44;2358377;75;51562;-79
2022/11/07 11:53:21;;;;;;;;;;;;;;;18.89;63.29;100612.12;2341681;75;50012;-78
2022/11/07 11:56:24;;;;;;;;;;;;;;;18.97;63.09;100609.03;2369699;74;51505;-78
2022/11/07 11:59:30;;;;;;;;;;;;;;;19.02;62.97;100602.59;2369069;75;51648;-76
2022/11/07 12:02:50;;;;;;;;;;;;;;;18.99;63.02;100611.84;2368898;75;52473;-76
2022/11/07 12:05:59;;;;;;;;;;;;;;;18.96;63.10;100603.33;2340687;75;51071;-77
2022/11/07 12:09:02;;;;;;;;;;;;;;;18.93;63.19;100600.02;2368688;75;51782;-76
2022/11/07 12:12:05;;;;;;;;;;;;;;;18.89;63.29;100600.06;2369044;74;50700;-77
2022/11/07 12:15:09;;;;;;;;;;;;;;;18.82;63.41;100601.81;2384792;73;51561;-77
2022/11/07 12:18:18;;;;;;;;;;;;;;;18.78;63.56;100597.86;2382246;72;52658;-77
2022/11/07 12:21:24;;;;;;;;;;;;;;;18.79;63.65;100591.47;2408372;73;51572;-77
2022/11/07 12:24:37;;;;;;;;;;;;;;;18.85;63.52;100600.09;2411922;73;49988;-76
2022/11/07 12:27:56;;;;;;;;;;;;;;;18.91;63.32;100589.98;2412073;73;50295;-76
2022/11/07 12:31:18;;;;;;;;;;;;;;;18.93;63.21;100598.69;2411613;73;50116;-76
2022/11/07 12:34:36;;;;;;;;;;;;;;;18.97;63.08;100598.30;2415160;73;51567;-76
2022/11/07 12:37:42;;;;;;;;;;;;;;;18.92;63.10;100594.31;2412968;73;50900;-77
2022/11/07 12:40:46;;;;;;;;;;;;;;;18.93;63.08;100600.02;2412602;73;51610;-76
2022/11/07 12:43:49;;;;;;;;;;;;;;;18.94;63.01;100594.14;2383492;73;52600;-76
2022/11/07 12:46:54;;;;;;;;;;;;;;;18.91;63.02;100602.05;2413464;73;51655;-75
2022/11/07 12:50:15;;;;;;;;;;;;;;;18.79;63.38;100598.17;2413335;72;50764;-76
2022/11/07 12:53:28;;;;;;;;;;;;;;;18.78;63.60;100611.27;2401006;73;51509;-76
2022/11/07 12:56:33;;;;;;;;;;;;;;;18.87;63.53;100604.77;2383678;73;51372;-76
2022/11/07 12:59:34;;;;;;;;;;;;;;;18.90;63.38;100597.69;2412959;73;51473;-75
2022/11/07 13:02:50;;;;;;;;;;;;;;;18.95;63.31;100603.02;2416075;73;52201;-75
2022/11/07 13:06:02;;;;;;;;;;;;;;;18.93;63.46;100600.50;2412513;73;50360;-76
2022/11/07 13:09:12;;;;;;;;;;;;;;;18.89;63.50;100601.41;2383729;73;51006;-77
2022/11/07 13:12:23;;;;;;;;;;;;;;;18.87;63.62;100599.92;2348827;75;51503;-76
2022/11/07 13:15:25;;;;;;;;;;;;;;;18.80;63.81;100607.86;2348934;75;51090;-76
2022/11/07 13:18:27;;;;;;;;;;;;;;;18.79;63.81;100610.23;2350258;75;50237;-76
2022/11/07 13:21:30;;;;;;;;;;;;;;;18.73;64.00;100614.98;2337705;75;51643;-77
2022/11/07 13:24:32;;;;;;;;;;;;;;;18.70;64.17;100609.95;2315155;76;51134;-77
2022/11/07 13:27:35;;;;;;;;;;;;;;;18.76;64.12;100607.92;2327159;76;50358;-76
2022/11/07 13:30:38;;;;;;;;;;;;;;;18.85;63.92;100605.45;2325676;76;50872;-76
2022/11/07 13:33:40;;;;;;;;;;;;;;;18.90;63.76;100608.92;2315242;76;51439;-76
2022/11/07 13:36:41;;;;;;;;;;;;;;;18.97;63.54;100611.71;2327032;76;51668;-76
2022/11/07 13:39:43;;;;;;;;;;;;;;;18.97;63.48;100610.37;2327149;75;51583;-75
2022/11/07 13:42:45;;;;;;;;;;;;;;;18.95;63.55;100613.73;2326941;75;51478;-75
2022/11/07 13:45:50;;;;;;;;;;;;;;;18.88;63.74;100606.45;2317449;76;50844;-76
2022/11/07 13:48:58;;;;;;;;;;;;;;;18.83;63.87;100611.54;2348377;73;51137;-75
2022/11/07 13:52:01;;;;;;;;;;;;;;;18.75;64.08;100616.97;2405471;73;51599;-77
2022/11/07 13:55:05;;;;;;;;;;;;;;;18.68;64.32;100617.38;2412721;73;51098;-77
2022/11/07 13:58:10;;;;;;;;;;;;;;;18.70;64.34;100619.34;2406192;73;52722;-76
2022/11/07 14:01:12;;;;;;;;;;;;;;;18.79;64.17;100616.11;2382132;73;51503;-77
2022/11/07 14:04:15;;;;;;;;;;;;;;;18.88;63.81;100615.84;2411966;73;50688;-78
2022/11/07 14:07:16;;;;;;;;;;;;;;;18.92;63.69;100617.11;2410892;73;50172;-77
2022/11/07 14:10:23;;;;;;;;;;;;;;;18.93;63.58;100608.06;2406608;73;49575;-77
2022/11/07 14:13:25;;;;;;;;;;;;;;;18.96;63.45;100611.37;2411572;73;51474;-77
2022/11/07 14:16:32;;;;;;;;;;;;;;;18.91;63.48;100604.73;2403768;73;50741;-77
2022/11/07 14:19:31;;;;;;;;;;;;;;;18.92;63.43;100602.36;2367886;75;22352;-77
2022/11/07 14:22:32;;;;;;;;;;;;;;;18.93;63.34;100604.53;2341257;75;49615;-77
2022/11/07 14:25:37;;;;;;;;;;;;;;;18.86;63.41;100605.80;2368676;75;50710;-76
2022/11/07 14:28:38;;;;;;;;;;;;;;;18.79;63.68;100595.49;2368860;75;50432;-76
2022/11/07 14:31:40;;;;;;;;;;;;;;;18.81;63.64;100596.66;2341319;75;50031;-77
2022/11/07 14:34:45;;;;;;;;;;;;;;;18.88;63.45;100604.25;2340830;75;50157;-77
2022/11/07 14:37:47;;;;;;;;;;;;;;;18.92;63.31;100602.36;2315469;75;52524;-77
2022/11/07 14:40:49;;;;;;;;;;;;;;;18.93;63.24;100593.32;2369844;75;50268;-77
2022/11/07 14:43:50;;;;;;;;;;;;;;;18.96;63.12;100595.28;2368871;75;51615;-77
2022/11/07 14:46:52;;;;;;;;;;;;;;;18.93;63.13;100596.00;2405649;73;49887;-77
2022/11/07 14:49:54;;;;;;;;;;;;;;;18.91;63.18;100584.62;2375600;74;51460;-77
2022/11/07 14:52:57;;;;;;;;;;;;;;;18.90;63.18;100585.63;2401182;74;51701;-78
2022/11/07 14:56:00;;;;;;;;;;;;;;;18.88;63.23;100580.98;2400181;74;50802;-77
2022/11/07 14:59:02;;;;;;;;;;;;;;;18.84;63.30;100584.22;2375019;74;52348;-77
2022/11/07 15:02:05;;;;;;;;;;;;;;;18.79;63.47;100576.73;2400937;74;51574;-77
2022/11/07 15:05:09;;;;;;;;;;;;;;;18.84;63.37;100577.52;2396531;74;50820;-77
2022/11/07 15:08:28;;;;;;;;;;;;;;;18.88;63.25;100574.28;2396784;74;50642;-78
2022/11/07 15:11:33;;;;;;;;;;;;;;;18.95;63.09;100577.55;2375348;74;51202;-77
2022/11/07 15:14:36;;;;;;;;;;;;;;;18.98;62.96;100585.20;2372601;73;51478;-77
2022/11/07 15:17:44;;;;;;;;;;;;;;;18.94;63.04;100590.13;2371145;73;52341;-77
2022/11/07 15:20:46;;;;;;;;;;;;;;;18.91;63.02;100584.62;2369450;75;50391;-77
2022/11/07 15:23:47;;;;;;;;;;;;;;;18.89;63.08;100585.31;2336510;74;51845;-77
2022/11/07 15:26:51;;;;;;;;;;;;;;;18.90;63.05;100589.64;2335133;75;50347;-78
2022/11/07 15:29:56;;;;;;;;;;;;;;;18.88;63.08;100582.81;2380355;72;50239;-78
2022/11/07 15:32:57;;;;;;;;;;;;;;;18.78;63.41;100589.81;2362250;73;50799;-75
2022/11/07 15:35:59;;;;;;;;;;;;;;;18.78;64.81;100585.80;2366579;73;50033;-75
2022/11/07 15:39:01;;;;;;;;;;;;;;;18.83;64.74;100590.58;2412308;73;50390;-78
2022/11/07 15:42:02;;;;;;;;;;;;;;;18.89;64.58;100588.52;2412549;73;50343;-78
2022/11/07 15:45:04;;;;;;;;;;;;;;;18.92;64.26;100588.95;2363087;74;50623;-76
2022/11/07 15:48:06;;;;;;;;;;;;;;;18.93;64.14;100591.98;2371401;73;50325;-77
2022/11/07 15:51:08;;;;;;;;;;;;;;;18.91;64.12;100600.71;2412544;73;51566;-76
2022/11/07 15:54:11;;;;;;;;;;;;;;;18.93;63.78;100595.14;2382736;73;50283;-76